sensor_id;sensor_type;location;lat;lon;timestamp;temperature;humidity
5226;DHT22;2632;51.666;7.146;2022-12-20T00:00:56;10.60;98.30
5226;DHT22;2632;51.666;7.146;2022-12-20T00:03:23;10.50;98.40
5226;DHT22;2632;51.666;7.146;2022-12-20T00:05:50;10.60;98.30
5226;DHT22;2632;51.666;7.146;2022-12-20T00:08:16;10.60;98.30
5226;DHT22;2632;51.666;7.146;2022-12-20T00:10:44;10.60;98.20
5226;DHT22;2632;51.666;7.146;2022-12-20T00:13:11;10.80;98.00
5226;DHT22;2632;51.666;7.146;2022-12-20T00:15:38;10.70;97.80
5226;DHT22;2632;51.666;7.146;2022-12-20T00:18:04;10.80;97.80
5226;DHT22;2632;51.666;7.146;2022-12-20T00:20:32;10.80;97.70
5226;DHT22;2632;51.666;7.146;2022-12-20T00:22:58;10.80;97.60
5226;DHT22;2632;51.666;7.146;2022-12-20T00:25:25;10.90;97.50
5226;DHT22;2632;51.666;7.146;2022-12-20T00:27:52;10.90;97.40
5226;DHT22;2632;51.666;7.146;2022-12-20T00:30:18;10.90;97.40
5226;DHT22;2632;51.666;7.146;2022-12-20T00:32:45;10.90;97.30
5226;DHT22;2632;51.666;7.146;2022-12-20T00:35:12;10.90;97.40
5226;DHT22;2632;51.666;7.146;2022-12-20T00:37:39;10.90;97.30
5226;DHT22;2632;51.666;7.146;2022-12-20T00:40:06;10.90;97.30
5226;DHT22;2632;51.666;7.146;2022-12-20T00:42:33;10.90;97.20
5226;DHT22;2632;51.666;7.146;2022-12-20T00:44:59;10.90;97.10
5226;DHT22;2632;51.666;7.146;2022-12-20T00:47:26;11.00;97.00
5226;DHT22;2632;51.666;7.146;2022-12-20T00:49:52;11.00;97.00
5226;DHT22;2632;51.666;7.146;2022-12-20T00:52:19;11.00;96.90
5226;DHT22;2632;51.666;7.146;2022-12-20T00:54:45;11.00;96.90
5226;DHT22;2632;51.666;7.146;2022-12-20T00:57:12;11.00;96.90
5226;DHT22;2632;51.666;7.146;2022-12-20T00:59:39;11.00;96.90
5226;DHT22;2632;51.666;7.146;2022-12-20T01:02:05;11.00;96.90
5226;DHT22;2632;51.666;7.146;2022-12-20T01:04:32;11.00;96.80
5226;DHT22;2632;51.666;7.146;2022-12-20T01:06:59;11.00;96.90
5226;DHT22;2632;51.666;7.146;2022-12-20T01:09:25;10.90;96.90
5226;DHT22;2632;51.666;7.146;2022-12-20T01:11:52;10.90;97.00
5226;DHT22;2632;51.666;7.146;2022-12-20T01:14:18;11.00;97.00
5226;DHT22;2632;51.666;7.146;2022-12-20T01:16:46;11.00;96.90
5226;DHT22;2632;51.666;7.146;2022-12-20T01:19:16;11.00;96.90
5226;DHT22;2632;51.666;7.146;2022-12-20T01:21:43;10.90;96.90
5226;DHT22;2632;51.666;7.146;2022-12-20T01:24:11;11.00;96.90
5226;DHT22;2632;51.666;7.146;2022-12-20T01:26:38;11.00;96.90
5226;DHT22;2632;51.666;7.146;2022-12-20T01:29:04;11.00;96.90
5226;DHT22;2632;51.666;7.146;2022-12-20T01:31:31;11.00;96.90
5226;DHT22;2632;51.666;7.146;2022-12-20T01:33:59;11.00;96.90
5226;DHT22;2632;51.666;7.146;2022-12-20T01:36:29;11.00;96.80
5226;DHT22;2632;51.666;7.146;2022-12-20T01:38:57;11.00;96.90
5226;DHT22;2632;51.666;7.146;2022-12-20T01:41:25;11.00;96.90
5226;DHT22;2632;51.666;7.146;2022-12-20T01:43:58;11.00;97.00
5226;DHT22;2632;51.666;7.146;2022-12-20T01:46:30;10.90;96.90
5226;DHT22;2632;51.666;7.146;2022-12-20T01:49:37;10.90;96.90
5226;DHT22;2632;51.666;7.146;2022-12-20T01:52:17;10.90;97.00
5226;DHT22;2632;51.666;7.146;2022-12-20T01:57:19;10.90;96.90
5226;DHT22;2632;51.666;7.146;2022-12-20T01:59:47;10.90;96.80
5226;DHT22;2632;51.666;7.146;2022-12-20T02:02:16;11.00;96.90
5226;DHT22;2632;51.666;7.146;2022-12-20T02:04:43;11.00;96.90
5226;DHT22;2632;51.666;7.146;2022-12-20T02:07:14;10.90;96.80
5226;DHT22;2632;51.666;7.146;2022-12-20T02:09:42;11.00;96.80
5226;DHT22;2632;51.666;7.146;2022-12-20T02:12:19;11.00;96.80
5226;DHT22;2632;51.666;7.146;2022-12-20T02:15:17;11.00;96.80
5226;DHT22;2632;51.666;7.146;2022-12-20T02:17:55;11.10;96.80
5226;DHT22;2632;51.666;7.146;2022-12-20T02:23:41;11.00;96.70
5226;DHT22;2632;51.666;7.146;2022-12-20T02:34:26;11.00;96.90
5226;DHT22;2632;51.666;7.146;2022-12-20T02:36:54;11.00;97.10
5226;DHT22;2632;51.666;7.146;2022-12-20T02:39:22;11.10;97.10
5226;DHT22;2632;51.666;7.146;2022-12-20T02:42:03;11.00;97.00
5226;DHT22;2632;51.666;7.146;2022-12-20T02:44:32;11.10;97.10
5226;DHT22;2632;51.666;7.146;2022-12-20T02:47:28;11.10;96.90
5226;DHT22;2632;51.666;7.146;2022-12-20T02:49:57;11.00;97.00
5226;DHT22;2632;51.666;7.146;2022-12-20T02:52:25;11.10;97.10
5226;DHT22;2632;51.666;7.146;2022-12-20T02:54:57;11.10;97.10
5226;DHT22;2632;51.666;7.146;2022-12-20T02:57:44;11.10;97.10
5226;DHT22;2632;51.666;7.146;2022-12-20T03:00:16;11.10;97.30
5226;DHT22;2632;51.666;7.146;2022-12-20T03:02:44;11.10;97.40
5226;DHT22;2632;51.666;7.146;2022-12-20T03:05:33;11.10;97.50
5226;DHT22;2632;51.666;7.146;2022-12-20T03:08:01;11.00;97.70
5226;DHT22;2632;51.666;7.146;2022-12-20T03:10:28;11.00;97.70
5226;DHT22;2632;51.666;7.146;2022-12-20T03:12:55;11.00;98.00
5226;DHT22;2632;51.666;7.146;2022-12-20T03:15:22;11.00;98.10
5226;DHT22;2632;51.666;7.146;2022-12-20T03:17:48;11.00;98.30
5226;DHT22;2632;51.666;7.146;2022-12-20T03:20:15;11.00;98.50
5226;DHT22;2632;51.666;7.146;2022-12-20T03:22:41;10.90;98.90
5226;DHT22;2632;51.666;7.146;2022-12-20T03:25:08;10.90;98.90
5226;DHT22;2632;51.666;7.146;2022-12-20T03:27:35;10.80;99.10
5226;DHT22;2632;51.666;7.146;2022-12-20T03:30:02;10.80;99.30
5226;DHT22;2632;51.666;7.146;2022-12-20T03:32:29;10.80;99.50
5226;DHT22;2632;51.666;7.146;2022-12-20T03:34:55;10.80;99.30
5226;DHT22;2632;51.666;7.146;2022-12-20T03:37:22;10.60;99.90
5226;DHT22;2632;51.666;7.146;2022-12-20T03:39:49;10.70;99.60
5226;DHT22;2632;51.666;7.146;2022-12-20T03:42:16;10.60;99.60
5226;DHT22;2632;51.666;7.146;2022-12-20T03:44:42;10.60;99.80
5226;DHT22;2632;51.666;7.146;2022-12-20T03:47:09;10.60;99.90
5226;DHT22;2632;51.666;7.146;2022-12-20T03:49:36;10.50;99.90
5226;DHT22;2632;51.666;7.146;2022-12-20T03:52:03;10.50;99.80
5226;DHT22;2632;51.666;7.146;2022-12-20T03:54:29;10.60;99.90
5226;DHT22;2632;51.666;7.146;2022-12-20T03:56:56;10.60;99.90
5226;DHT22;2632;51.666;7.146;2022-12-20T03:59:22;10.60;99.90
5226;DHT22;2632;51.666;7.146;2022-12-20T04:01:49;10.60;99.90
5226;DHT22;2632;51.666;7.146;2022-12-20T04:04:16;10.60;99.90
5226;DHT22;2632;51.666;7.146;2022-12-20T04:06:43;10.60;99.90
5226;DHT22;2632;51.666;7.146;2022-12-20T04:09:09;10.50;99.90
5226;DHT22;2632;51.666;7.146;2022-12-20T04:11:36;10.60;99.90
5226;DHT22;2632;51.666;7.146;2022-12-20T04:14:02;10.60;99.90
5226;DHT22;2632;51.666;7.146;2022-12-20T04:16:29;10.50;99.90
5226;DHT22;2632;51.666;7.146;2022-12-20T04:18:56;10.50;99.90
5226;DHT22;2632;51.666;7.146;2022-12-20T04:21:25;10.50;99.90
5226;DHT22;2632;51.666;7.146;2022-12-20T04:23:52;10.50;99.90
5226;DHT22;2632;51.666;7.146;2022-12-20T04:26:19;10.50;99.90
5226;DHT22;2632;51.666;7.146;2022-12-20T04:28:46;10.50;99.90
5226;DHT22;2632;51.666;7.146;2022-12-20T04:31:13;10.50;99.90
5226;DHT22;2632;51.666;7.146;2022-12-20T04:33:47;10.50;99.90
5226;DHT22;2632;51.666;7.146;2022-12-20T04:36:14;10.50;99.90
5226;DHT22;2632;51.666;7.146;2022-12-20T04:38:41;10.50;99.90
5226;DHT22;2632;51.666;7.146;2022-12-20T04:41:07;10.40;99.90
5226;DHT22;2632;51.666;7.146;2022-12-20T04:43:34;10.40;99.90
5226;DHT22;2632;51.666;7.146;2022-12-20T04:46:01;10.40;99.90
5226;DHT22;2632;51.666;7.146;2022-12-20T04:48:27;10.40;99.90
5226;DHT22;2632;51.666;7.146;2022-12-20T04:51:15;10.40;99.90
5226;DHT22;2632;51.666;7.146;2022-12-20T04:53:42;10.40;99.90
5226;DHT22;2632;51.666;7.146;2022-12-20T04:56:21;10.40;99.90
5226;DHT22;2632;51.666;7.146;2022-12-20T04:58:50;10.40;99.90
5226;DHT22;2632;51.666;7.146;2022-12-20T05:01:17;10.40;99.90
5226;DHT22;2632;51.666;7.146;2022-12-20T05:03:45;10.40;99.90
5226;DHT22;2632;51.666;7.146;2022-12-20T05:06:12;10.50;99.90
5226;DHT22;2632;51.666;7.146;2022-12-20T05:08:39;10.40;99.90
5226;DHT22;2632;51.666;7.146;2022-12-20T05:11:06;10.50;99.90
5226;DHT22;2632;51.666;7.146;2022-12-20T05:13:33;10.50;99.90
5226;DHT22;2632;51.666;7.146;2022-12-20T05:16:00;10.50;99.90
5226;DHT22;2632;51.666;7.146;2022-12-20T05:18:27;10.40;99.90
5226;DHT22;2632;51.666;7.146;2022-12-20T05:20:56;10.40;99.90
5226;DHT22;2632;51.666;7.146;2022-12-20T05:23:41;10.50;99.90
5226;DHT22;2632;51.666;7.146;2022-12-20T05:26:31;10.40;99.90
5226;DHT22;2632;51.666;7.146;2022-12-20T05:28:58;10.40;99.90
5226;DHT22;2632;51.666;7.146;2022-12-20T05:31:24;10.40;99.90
5226;DHT22;2632;51.666;7.146;2022-12-20T05:33:51;10.40;99.90
5226;DHT22;2632;51.666;7.146;2022-12-20T05:36:18;10.40;99.90
5226;DHT22;2632;51.666;7.146;2022-12-20T05:38:44;10.40;99.90
5226;DHT22;2632;51.666;7.146;2022-12-20T05:41:11;10.30;99.90
5226;DHT22;2632;51.666;7.146;2022-12-20T05:43:38;10.30;99.90
5226;DHT22;2632;51.666;7.146;2022-12-20T05:46:05;10.30;99.90
5226;DHT22;2632;51.666;7.146;2022-12-20T05:48:32;10.40;99.90
5226;DHT22;2632;51.666;7.146;2022-12-20T05:50:59;10.30;99.90
5226;DHT22;2632;51.666;7.146;2022-12-20T05:53:26;10.30;99.90
5226;DHT22;2632;51.666;7.146;2022-12-20T05:55:53;10.30;99.90
5226;DHT22;2632;51.666;7.146;2022-12-20T05:58:20;10.40;99.90
5226;DHT22;2632;51.666;7.146;2022-12-20T06:00:46;10.30;99.90
5226;DHT22;2632;51.666;7.146;2022-12-20T06:03:13;10.40;99.90
5226;DHT22;2632;51.666;7.146;2022-12-20T06:05:44;10.30;99.90
5226;DHT22;2632;51.666;7.146;2022-12-20T06:08:12;10.30;99.90
5226;DHT22;2632;51.666;7.146;2022-12-20T06:10:40;10.30;99.90
5226;DHT22;2632;51.666;7.146;2022-12-20T06:13:08;10.30;99.90
5226;DHT22;2632;51.666;7.146;2022-12-20T06:15:35;10.30;99.90
5226;DHT22;2632;51.666;7.146;2022-12-20T06:18:02;10.30;99.90
5226;DHT22;2632;51.666;7.146;2022-12-20T06:20:29;10.30;99.90
5226;DHT22;2632;51.666;7.146;2022-12-20T06:22:56;10.20;99.90
5226;DHT22;2632;51.666;7.146;2022-12-20T06:25:23;10.30;99.90
5226;DHT22;2632;51.666;7.146;2022-12-20T06:27:50;10.20;99.90
5226;DHT22;2632;51.666;7.146;2022-12-20T06:30:17;10.30;99.90
5226;DHT22;2632;51.666;7.146;2022-12-20T06:32:44;10.30;99.90
5226;DHT22;2632;51.666;7.146;2022-12-20T06:35:11;10.30;99.90
5226;DHT22;2632;51.666;7.146;2022-12-20T06:37:37;10.30;99.90
5226;DHT22;2632;51.666;7.146;2022-12-20T06:40:10;10.30;99.90
5226;DHT22;2632;51.666;7.146;2022-12-20T06:42:38;10.30;99.90
5226;DHT22;2632;51.666;7.146;2022-12-20T06:45:05;10.30;99.90
5226;DHT22;2632;51.666;7.146;2022-12-20T06:47:32;10.30;99.90
5226;DHT22;2632;51.666;7.146;2022-12-20T06:49:58;10.40;99.90
5226;DHT22;2632;51.666;7.146;2022-12-20T06:52:25;10.30;99.90
5226;DHT22;2632;51.666;7.146;2022-12-20T06:54:52;10.40;99.90
5226;DHT22;2632;51.666;7.146;2022-12-20T06:57:18;10.40;99.90
5226;DHT22;2632;51.666;7.146;2022-12-20T06:59:45;10.40;99.90
5226;DHT22;2632;51.666;7.146;2022-12-20T07:02:12;10.40;99.90
5226;DHT22;2632;51.666;7.146;2022-12-20T07:04:39;10.40;99.90
5226;DHT22;2632;51.666;7.146;2022-12-20T07:07:06;10.50;99.90
5226;DHT22;2632;51.666;7.146;2022-12-20T07:09:33;10.50;99.90
5226;DHT22;2632;51.666;7.146;2022-12-20T07:12:00;10.50;99.90
5226;DHT22;2632;51.666;7.146;2022-12-20T07:14:27;10.50;99.90
5226;DHT22;2632;51.666;7.146;2022-12-20T07:16:53;10.50;99.90
5226;DHT22;2632;51.666;7.146;2022-12-20T07:19:20;10.60;99.90
5226;DHT22;2632;51.666;7.146;2022-12-20T07:21:47;10.60;99.90
5226;DHT22;2632;51.666;7.146;2022-12-20T07:24:14;10.60;99.90
5226;DHT22;2632;51.666;7.146;2022-12-20T07:26:43;10.50;99.90
5226;DHT22;2632;51.666;7.146;2022-12-20T07:29:11;10.50;99.90
5226;DHT22;2632;51.666;7.146;2022-12-20T07:31:41;10.50;99.90
5226;DHT22;2632;51.666;7.146;2022-12-20T07:34:09;10.60;99.90
5226;DHT22;2632;51.666;7.146;2022-12-20T07:36:36;10.60;99.90
5226;DHT22;2632;51.666;7.146;2022-12-20T07:39:03;10.60;99.90
5226;DHT22;2632;51.666;7.146;2022-12-20T07:41:29;10.60;99.80
5226;DHT22;2632;51.666;7.146;2022-12-20T07:43:56;10.70;99.70
5226;DHT22;2632;51.666;7.146;2022-12-20T07:46:24;10.70;99.70
5226;DHT22;2632;51.666;7.146;2022-12-20T07:48:51;10.70;99.60
5226;DHT22;2632;51.666;7.146;2022-12-20T07:51:22;10.70;99.50
5226;DHT22;2632;51.666;7.146;2022-12-20T07:54:19;10.80;99.40
5226;DHT22;2632;51.666;7.146;2022-12-20T07:56:47;10.90;99.20
5226;DHT22;2632;51.666;7.146;2022-12-20T07:59:17;10.90;99.20
5226;DHT22;2632;51.666;7.146;2022-12-20T08:01:47;10.90;99.00
5226;DHT22;2632;51.666;7.146;2022-12-20T08:04:18;11.00;98.90
5226;DHT22;2632;51.666;7.146;2022-12-20T08:06:49;11.00;98.80
5226;DHT22;2632;51.666;7.146;2022-12-20T08:09:18;11.00;98.80
5226;DHT22;2632;51.666;7.146;2022-12-20T08:11:49;11.10;98.70
5226;DHT22;2632;51.666;7.146;2022-12-20T08:14:17;11.10;98.60
5226;DHT22;2632;51.666;7.146;2022-12-20T08:16:44;11.10;98.60
5226;DHT22;2632;51.666;7.146;2022-12-20T08:19:11;11.10;98.60
5226;DHT22;2632;51.666;7.146;2022-12-20T08:21:38;11.10;98.60
5226;DHT22;2632;51.666;7.146;2022-12-20T08:24:05;11.10;98.50
5226;DHT22;2632;51.666;7.146;2022-12-20T08:26:37;11.10;98.40
5226;DHT22;2632;51.666;7.146;2022-12-20T08:29:03;11.20;98.30
5226;DHT22;2632;51.666;7.146;2022-12-20T08:31:30;11.40;98.20
5226;DHT22;2632;51.666;7.146;2022-12-20T08:33:57;11.40;97.90
5226;DHT22;2632;51.666;7.146;2022-12-20T08:36:24;11.50;97.70
5226;DHT22;2632;51.666;7.146;2022-12-20T08:38:51;11.60;97.70
5226;DHT22;2632;51.666;7.146;2022-12-20T08:41:17;11.70;97.50
5226;DHT22;2632;51.666;7.146;2022-12-20T08:43:44;11.60;97.50
5226;DHT22;2632;51.666;7.146;2022-12-20T08:46:11;11.60;97.50
5226;DHT22;2632;51.666;7.146;2022-12-20T08:48:38;11.70;97.40
5226;DHT22;2632;51.666;7.146;2022-12-20T08:51:07;11.70;97.40
5226;DHT22;2632;51.666;7.146;2022-12-20T08:53:35;11.70;97.20
5226;DHT22;2632;51.666;7.146;2022-12-20T08:56:10;11.80;97.00
5226;DHT22;2632;51.666;7.146;2022-12-20T08:58:38;11.90;97.10
5226;DHT22;2632;51.666;7.146;2022-12-20T09:01:08;12.00;96.80
5226;DHT22;2632;51.666;7.146;2022-12-20T09:03:36;12.10;96.70
5226;DHT22;2632;51.666;7.146;2022-12-20T09:06:13;12.10;96.60
5226;DHT22;2632;51.666;7.146;2022-12-20T09:08:41;12.00;96.60
5226;DHT22;2632;51.666;7.146;2022-12-20T09:11:11;12.00;96.70
5226;DHT22;2632;51.666;7.146;2022-12-20T09:13:39;12.00;96.50
5226;DHT22;2632;51.666;7.146;2022-12-20T09:16:11;12.00;96.60
5226;DHT22;2632;51.666;7.146;2022-12-20T09:18:40;12.10;96.50
5226;DHT22;2632;51.666;7.146;2022-12-20T09:21:07;12.00;96.50
5226;DHT22;2632;51.666;7.146;2022-12-20T09:23:35;12.10;96.50
5226;DHT22;2632;51.666;7.146;2022-12-20T09:26:06;12.10;96.20
5226;DHT22;2632;51.666;7.146;2022-12-20T09:28:33;12.20;96.30
5226;DHT22;2632;51.666;7.146;2022-12-20T09:31:02;12.20;96.00
5226;DHT22;2632;51.666;7.146;2022-12-20T09:33:30;12.20;96.10
5226;DHT22;2632;51.666;7.146;2022-12-20T09:35:58;12.20;96.10
5226;DHT22;2632;51.666;7.146;2022-12-20T09:38:26;12.30;96.10
5226;DHT22;2632;51.666;7.146;2022-12-20T09:40:55;12.30;96.00
5226;DHT22;2632;51.666;7.146;2022-12-20T09:43:22;12.30;95.80
5226;DHT22;2632;51.666;7.146;2022-12-20T09:46:00;12.40;95.80
5226;DHT22;2632;51.666;7.146;2022-12-20T09:48:31;12.40;95.80
5226;DHT22;2632;51.666;7.146;2022-12-20T09:51:26;12.40;95.80
5226;DHT22;2632;51.666;7.146;2022-12-20T09:57:00;12.50;95.60
5226;DHT22;2632;51.666;7.146;2022-12-20T09:59:28;12.60;95.70
5226;DHT22;2632;51.666;7.146;2022-12-20T10:02:09;12.50;95.70
5226;DHT22;2632;51.666;7.146;2022-12-20T10:04:56;12.50;95.70
5226;DHT22;2632;51.666;7.146;2022-12-20T10:07:46;12.50;95.80
5226;DHT22;2632;51.666;7.146;2022-12-20T10:13:30;12.40;96.00
5226;DHT22;2632;51.666;7.146;2022-12-20T10:19:29;12.40;96.20
5226;DHT22;2632;51.666;7.146;2022-12-20T10:24:44;12.30;96.60
5226;DHT22;2632;51.666;7.146;2022-12-20T10:27:18;12.30;96.60
5226;DHT22;2632;51.666;7.146;2022-12-20T10:29:46;12.40;96.80
5226;DHT22;2632;51.666;7.146;2022-12-20T10:32:17;12.40;96.90
5226;DHT22;2632;51.666;7.146;2022-12-20T10:37:37;12.40;96.70
5226;DHT22;2632;51.666;7.146;2022-12-20T10:40:25;12.40;96.70
5226;DHT22;2632;51.666;7.146;2022-12-20T10:43:18;12.60;96.40
5226;DHT22;2632;51.666;7.146;2022-12-20T10:46:03;12.70;96.40
5226;DHT22;2632;51.666;7.146;2022-12-20T10:51:01;12.60;96.60
5226;DHT22;2632;51.666;7.146;2022-12-20T10:53:32;12.60;96.30
5226;DHT22;2632;51.666;7.146;2022-12-20T10:56:33;12.50;96.50
5226;DHT22;2632;51.666;7.146;2022-12-20T11:01:46;12.50;96.80
5226;DHT22;2632;51.666;7.146;2022-12-20T11:04:34;12.50;96.80
5226;DHT22;2632;51.666;7.146;2022-12-20T11:07:20;14.50;97.30
5226;DHT22;2632;51.666;7.146;2022-12-20T11:09:55;13.00;96.30
5226;DHT22;2632;51.666;7.146;2022-12-20T11:12:22;12.90;96.30
5226;DHT22;2632;51.666;7.146;2022-12-20T11:14:49;12.80;96.50
5226;DHT22;2632;51.666;7.146;2022-12-20T11:17:36;12.70;96.80
5226;DHT22;2632;51.666;7.146;2022-12-20T11:23:03;12.80;96.50
5226;DHT22;2632;51.666;7.146;2022-12-20T11:28:45;13.00;96.30
5226;DHT22;2632;51.666;7.146;2022-12-20T11:34:07;13.00;96.20
5226;DHT22;2632;51.666;7.146;2022-12-20T11:37:18;12.90;96.10
5226;DHT22;2632;51.666;7.146;2022-12-20T11:48:30;12.60;96.70
5226;DHT22;2632;51.666;7.146;2022-12-20T11:51:03;12.50;96.60
5226;DHT22;2632;51.666;7.146;2022-12-20T11:53:46;12.40;96.60
5226;DHT22;2632;51.666;7.146;2022-12-20T11:56:20;12.40;96.80
5226;DHT22;2632;51.666;7.146;2022-12-20T12:01:50;12.40;96.90
5226;DHT22;2632;51.666;7.146;2022-12-20T12:04:19;12.30;97.00
5226;DHT22;2632;51.666;7.146;2022-12-20T12:07:03;12.40;97.10
5226;DHT22;2632;51.666;7.146;2022-12-20T12:09:35;12.40;97.10
5226;DHT22;2632;51.666;7.146;2022-12-20T12:12:22;12.30;97.40
5226;DHT22;2632;51.666;7.146;2022-12-20T12:18:06;12.40;97.50
5226;DHT22;2632;51.666;7.146;2022-12-20T12:25:45;12.60;97.30
5226;DHT22;2632;51.666;7.146;2022-12-20T12:28:13;12.60;97.20
5226;DHT22;2632;51.666;7.146;2022-12-20T12:30:50;12.60;97.10
5226;DHT22;2632;51.666;7.146;2022-12-20T12:33:34;12.60;97.20
5226;DHT22;2632;51.666;7.146;2022-12-20T12:36:26;12.60;96.90
5226;DHT22;2632;51.666;7.146;2022-12-20T12:41:59;12.60;96.90
5226;DHT22;2632;51.666;7.146;2022-12-20T12:47:16;12.60;96.90
5226;DHT22;2632;51.666;7.146;2022-12-20T12:49:48;12.70;96.60
5226;DHT22;2632;51.666;7.146;2022-12-20T12:52:49;12.70;96.30
5226;DHT22;2632;51.666;7.146;2022-12-20T12:55:34;12.70;96.80
5226;DHT22;2632;51.666;7.146;2022-12-20T12:58:31;12.70;96.20
5226;DHT22;2632;51.666;7.146;2022-12-20T13:01:11;12.70;96.00
5226;DHT22;2632;51.666;7.146;2022-12-20T13:03:45;12.70;96.10
5226;DHT22;2632;51.666;7.146;2022-12-20T13:11:34;12.90;96.10
5226;DHT22;2632;51.666;7.146;2022-12-20T13:19:50;12.90;95.90
5226;DHT22;2632;51.666;7.146;2022-12-20T13:25:02;13.00;95.90
5226;DHT22;2632;51.666;7.146;2022-12-20T13:27:35;13.00;96.10
5226;DHT22;2632;51.666;7.146;2022-12-20T13:37:55;12.60;97.80
5226;DHT22;2632;51.666;7.146;2022-12-20T13:40:34;12.40;98.60
5226;DHT22;2632;51.666;7.146;2022-12-20T13:51:20;12.30;99.60
5226;DHT22;2632;51.666;7.146;2022-12-20T13:54:01;12.20;99.90
5226;DHT22;2632;51.666;7.146;2022-12-20T13:58:56;12.00;99.90
5226;DHT22;2632;51.666;7.146;2022-12-20T14:01:24;11.90;99.90
5226;DHT22;2632;51.666;7.146;2022-12-20T14:03:52;11.90;99.90
5226;DHT22;2632;51.666;7.146;2022-12-20T14:06:20;11.80;99.90
5226;DHT22;2632;51.666;7.146;2022-12-20T14:08:53;11.80;99.90
5226;DHT22;2632;51.666;7.146;2022-12-20T14:11:22;11.70;99.90
5226;DHT22;2632;51.666;7.146;2022-12-20T14:13:55;11.60;99.90
5226;DHT22;2632;51.666;7.146;2022-12-20T14:16:23;11.50;99.90
5226;DHT22;2632;51.666;7.146;2022-12-20T14:19:00;11.50;99.90
5226;DHT22;2632;51.666;7.146;2022-12-20T14:21:28;11.40;99.90
5226;DHT22;2632;51.666;7.146;2022-12-20T14:23:57;11.40;99.90
5226;DHT22;2632;51.666;7.146;2022-12-20T14:26:41;11.40;99.90
5226;DHT22;2632;51.666;7.146;2022-12-20T14:29:17;11.40;99.90
5226;DHT22;2632;51.666;7.146;2022-12-20T14:31:46;11.30;99.90
5226;DHT22;2632;51.666;7.146;2022-12-20T14:34:25;11.30;99.90
5226;DHT22;2632;51.666;7.146;2022-12-20T14:37:25;11.30;99.90
5226;DHT22;2632;51.666;7.146;2022-12-20T14:39:55;11.20;99.90
5226;DHT22;2632;51.666;7.146;2022-12-20T14:42:37;11.20;99.90
5226;DHT22;2632;51.666;7.146;2022-12-20T14:48:03;11.10;99.90
5226;DHT22;2632;51.666;7.146;2022-12-20T14:50:37;11.10;99.90
5226;DHT22;2632;51.666;7.146;2022-12-20T14:53:18;11.00;99.90
5226;DHT22;2632;51.666;7.146;2022-12-20T14:55:45;11.10;99.90
5226;DHT22;2632;51.666;7.146;2022-12-20T14:58:27;11.00;99.90
5226;DHT22;2632;51.666;7.146;2022-12-20T15:03:54;10.90;99.90
5226;DHT22;2632;51.666;7.146;2022-12-20T15:06:33;11.00;99.90
5226;DHT22;2632;51.666;7.146;2022-12-20T15:09:02;11.00;99.90
5226;DHT22;2632;51.666;7.146;2022-12-20T15:11:31;11.00;99.90
5226;DHT22;2632;51.666;7.146;2022-12-20T15:14:00;11.00;99.90
5226;DHT22;2632;51.666;7.146;2022-12-20T15:16:28;11.00;99.90
5226;DHT22;2632;51.666;7.146;2022-12-20T15:18:57;10.90;99.90
5226;DHT22;2632;51.666;7.146;2022-12-20T15:24:00;10.90;99.90
5226;DHT22;2632;51.666;7.146;2022-12-20T15:26:28;10.90;99.90
5226;DHT22;2632;51.666;7.146;2022-12-20T15:28:56;9.30;99.90
5226;DHT22;2632;51.666;7.146;2022-12-20T15:31:24;10.80;99.90
5226;DHT22;2632;51.666;7.146;2022-12-20T15:33:59;10.80;99.90
5226;DHT22;2632;51.666;7.146;2022-12-20T15:36:28;10.90;99.90
5226;DHT22;2632;51.666;7.146;2022-12-20T15:38:56;10.90;99.90
5226;DHT22;2632;51.666;7.146;2022-12-20T15:41:42;10.90;99.90
5226;DHT22;2632;51.666;7.146;2022-12-20T15:44:13;10.90;99.90
5226;DHT22;2632;51.666;7.146;2022-12-20T15:46:40;10.80;99.90
5226;DHT22;2632;51.666;7.146;2022-12-20T15:49:16;10.80;99.90
5226;DHT22;2632;51.666;7.146;2022-12-20T15:51:44;10.70;99.90
5226;DHT22;2632;51.666;7.146;2022-12-20T15:54:33;10.70;99.90
5226;DHT22;2632;51.666;7.146;2022-12-20T15:57:03;10.70;99.90
5226;DHT22;2632;51.666;7.146;2022-12-20T15:59:32;10.70;99.90
5226;DHT22;2632;51.666;7.146;2022-12-20T16:02:24;10.80;99.90
5226;DHT22;2632;51.666;7.146;2022-12-20T16:04:52;10.80;99.90
5226;DHT22;2632;51.666;7.146;2022-12-20T16:07:19;10.70;99.90
5226;DHT22;2632;51.666;7.146;2022-12-20T16:09:46;10.70;99.90
5226;DHT22;2632;51.666;7.146;2022-12-20T16:12:15;10.70;99.90
5226;DHT22;2632;51.666;7.146;2022-12-20T16:14:43;10.70;99.90
5226;DHT22;2632;51.666;7.146;2022-12-20T16:17:14;10.60;99.90
5226;DHT22;2632;51.666;7.146;2022-12-20T16:19:44;10.70;99.90
5226;DHT22;2632;51.666;7.146;2022-12-20T16:22:15;10.70;99.90
5226;DHT22;2632;51.666;7.146;2022-12-20T16:24:42;10.60;99.90
5226;DHT22;2632;51.666;7.146;2022-12-20T16:27:09;10.60;99.90
5226;DHT22;2632;51.666;7.146;2022-12-20T16:29:36;10.70;99.90
5226;DHT22;2632;51.666;7.146;2022-12-20T16:32:08;10.60;99.90
5226;DHT22;2632;51.666;7.146;2022-12-20T16:34:35;10.60;99.90
5226;DHT22;2632;51.666;7.146;2022-12-20T16:37:02;10.60;99.90
5226;DHT22;2632;51.666;7.146;2022-12-20T16:39:30;10.50;99.90
5226;DHT22;2632;51.666;7.146;2022-12-20T16:41:56;10.50;99.90
5226;DHT22;2632;51.666;7.146;2022-12-20T16:44:23;10.50;99.90
5226;DHT22;2632;51.666;7.146;2022-12-20T16:46:49;10.40;99.90
5226;DHT22;2632;51.666;7.146;2022-12-20T16:49:17;10.40;99.90
5226;DHT22;2632;51.666;7.146;2022-12-20T16:51:47;10.40;99.90
5226;DHT22;2632;51.666;7.146;2022-12-20T16:54:21;10.40;99.90
5226;DHT22;2632;51.666;7.146;2022-12-20T16:56:50;10.40;99.90
5226;DHT22;2632;51.666;7.146;2022-12-20T16:59:24;10.40;99.90
5226;DHT22;2632;51.666;7.146;2022-12-20T17:01:53;10.40;99.90
5226;DHT22;2632;51.666;7.146;2022-12-20T17:04:21;10.40;99.90
5226;DHT22;2632;51.666;7.146;2022-12-20T17:06:48;10.40;99.90
5226;DHT22;2632;51.666;7.146;2022-12-20T17:09:15;10.50;99.90
5226;DHT22;2632;51.666;7.146;2022-12-20T17:12:00;10.50;99.90
5226;DHT22;2632;51.666;7.146;2022-12-20T17:14:29;10.40;99.90
5226;DHT22;2632;51.666;7.146;2022-12-20T17:16:56;10.40;99.90
5226;DHT22;2632;51.666;7.146;2022-12-20T17:19:22;10.50;99.90
5226;DHT22;2632;51.666;7.146;2022-12-20T17:21:49;10.50;99.90
5226;DHT22;2632;51.666;7.146;2022-12-20T17:24:33;10.50;99.90
5226;DHT22;2632;51.666;7.146;2022-12-20T17:27:00;10.50;99.90
5226;DHT22;2632;51.666;7.146;2022-12-20T17:29:26;10.50;99.90
5226;DHT22;2632;51.666;7.146;2022-12-20T17:31:53;10.50;99.90
5226;DHT22;2632;51.666;7.146;2022-12-20T17:34:21;10.50;99.90
5226;DHT22;2632;51.666;7.146;2022-12-20T17:36:49;10.50;99.90
5226;DHT22;2632;51.666;7.146;2022-12-20T17:39:16;10.50;99.90
5226;DHT22;2632;51.666;7.146;2022-12-20T17:41:44;10.50;99.90
5226;DHT22;2632;51.666;7.146;2022-12-20T17:44:20;10.50;99.90
5226;DHT22;2632;51.666;7.146;2022-12-20T17:46:47;10.50;99.90
5226;DHT22;2632;51.666;7.146;2022-12-20T17:49:14;10.50;99.90
5226;DHT22;2632;51.666;7.146;2022-12-20T17:51:42;10.50;99.90
5226;DHT22;2632;51.666;7.146;2022-12-20T17:54:16;10.50;99.90
5226;DHT22;2632;51.666;7.146;2022-12-20T17:56:44;10.50;99.90
5226;DHT22;2632;51.666;7.146;2022-12-20T17:59:11;10.50;99.90
5226;DHT22;2632;51.666;7.146;2022-12-20T18:01:39;10.50;99.90
5226;DHT22;2632;51.666;7.146;2022-12-20T18:04:09;10.50;99.90
5226;DHT22;2632;51.666;7.146;2022-12-20T18:06:38;10.50;99.90
5226;DHT22;2632;51.666;7.146;2022-12-20T18:09:09;10.50;99.90
5226;DHT22;2632;51.666;7.146;2022-12-20T18:11:37;10.50;99.90
5226;DHT22;2632;51.666;7.146;2022-12-20T18:14:03;10.40;99.90